sensor_id;sensor_type;location;lat;lon;timestamp;pressure;altitude;pressure_sealevel;temperature;humidity
84143;BME280;74260;50.772;7.730;2024-02-26T00:00:27;97029.84;;;7.01;74.09
84143;BME280;74260;50.772;7.730;2024-02-26T00:01:02;97024.19;;;6.94;74.39
84143;BME280;74260;50.772;7.730;2024-02-26T00:01:32;97024.50;;;6.98;74.49
84143;BME280;74260;50.772;7.730;2024-02-26T00:02:04;97026.63;;;6.92;75.54
84143;BME280;74260;50.772;7.730;2024-02-26T00:02:37;97018.22;;;6.82;75.68
84143;BME280;74260;50.772;7.730;2024-02-26T00:03:08;97020.53;;;6.90;74.55
84143;BME280;74260;50.772;7.730;2024-02-26T00:03:38;97024.88;;;6.91;74.66
84143;BME280;74260;50.772;7.730;2024-02-26T00:04:12;97040.44;;;6.94;74.31
84143;BME280;74260;50.772;7.730;2024-02-26T00:04:43;97007.31;;;6.84;74.93
84143;BME280;74260;50.772;7.730;2024-02-26T00:05:13;97023.72;;;6.99;74.82
84143;BME280;74260;50.772;7.730;2024-02-26T00:05:43;97018.41;;;6.96;74.87
84143;BME280;74260;50.772;7.730;2024-02-26T00:06:14;97022.16;;;7.01;75.07
84143;BME280;74260;50.772;7.730;2024-02-26T00:06:44;97028.94;;;7.01;74.87
84143;BME280;74260;50.772;7.730;2024-02-26T00:07:15;97037.31;;;6.98;76.37
84143;BME280;74260;50.772;7.730;2024-02-26T00:07:45;97021.31;;;6.89;75.67
84143;BME280;74260;50.772;7.730;2024-02-26T00:08:17;97022.97;;;6.89;74.94
84143;BME280;74260;50.772;7.730;2024-02-26T00:08:47;97009.66;;;6.81;76.51
84143;BME280;74260;50.772;7.730;2024-02-26T00:09:19;97024.88;;;6.91;76.02
84143;BME280;74260;50.772;7.730;2024-02-26T00:09:49;97009.06;;;6.85;76.44
84143;BME280;74260;50.772;7.730;2024-02-26T00:10:20;97006.41;;;6.84;76.66
84143;BME280;74260;50.772;7.730;2024-02-26T00:10:50;97018.75;;;6.89;75.87
84143;BME280;74260;50.772;7.730;2024-02-26T00:11:22;97020.16;;;6.97;75.50
84143;BME280;74260;50.772;7.730;2024-02-26T00:11:53;97024.06;;;6.92;75.57
84143;BME280;74260;50.772;7.730;2024-02-26T00:12:24;97024.19;;;6.94;75.37
84143;BME280;74260;50.772;7.730;2024-02-26T00:12:54;97020.63;;;6.92;75.61
84143;BME280;74260;50.772;7.730;2024-02-26T00:13:25;97010.88;;;6.86;76.56
84143;BME280;74260;50.772;7.730;2024-02-26T00:13:56;97014.66;;;6.80;75.76
84143;BME280;74260;50.772;7.730;2024-02-26T00:14:26;97005.13;;;6.77;76.37
84143;BME280;74260;50.772;7.730;2024-02-26T00:14:57;97011.03;;;6.76;76.40
84143;BME280;74260;50.772;7.730;2024-02-26T00:15:28;97012.00;;;6.78;77.97
84143;BME280;74260;50.772;7.730;2024-02-26T00:16:00;97011.69;;;6.74;76.29
84143;BME280;74260;50.772;7.730;2024-02-26T00:16:30;97008.94;;;6.71;76.21
84143;BME280;74260;50.772;7.730;2024-02-26T00:17:01;97001.00;;;6.68;75.95
84143;BME280;74260;50.772;7.730;2024-02-26T00:17:31;97025.28;;;6.73;76.36
84143;BME280;74260;50.772;7.730;2024-02-26T00:18:02;97016.91;;;6.75;77.03
84143;BME280;74260;50.772;7.730;2024-02-26T00:18:33;97029.91;;;6.78;76.65
84143;BME280;74260;50.772;7.730;2024-02-26T00:19:05;97020.56;;;6.79;75.49
84143;BME280;74260;50.772;7.730;2024-02-26T00:19:36;97007.56;;;6.76;75.92
84143;BME280;74260;50.772;7.730;2024-02-26T00:20:06;97006.28;;;6.69;75.75
84143;BME280;74260;50.772;7.730;2024-02-26T00:20:38;97000.34;;;6.70;75.51
84143;BME280;74260;50.772;7.730;2024-02-26T00:21:10;97025.13;;;6.83;76.49
84143;BME280;74260;50.772;7.730;2024-02-26T00:21:41;97028.56;;;6.83;75.73
84143;BME280;74260;50.772;7.730;2024-02-26T00:22:13;97000.34;;;6.70;75.98
84143;BME280;74260;50.772;7.730;2024-02-26T00:22:44;97030.00;;;6.80;75.93
84143;BME280;74260;50.772;7.730;2024-02-26T00:23:17;97024.03;;;6.79;77.40
84143;BME280;74260;50.772;7.730;2024-02-26T00:23:49;97018.72;;;6.76;77.15
84143;BME280;74260;50.772;7.730;2024-02-26T00:24:21;97001.59;;;6.64;77.32
84143;BME280;74260;50.772;7.730;2024-02-26T00:24:51;97017.16;;;6.67;76.67
84143;BME280;74260;50.772;7.730;2024-02-26T00:25:22;97022.59;;;6.71;76.84
84143;BME280;74260;50.772;7.730;2024-02-26T00:25:52;97002.97;;;6.59;76.65
84143;BME280;74260;50.772;7.730;2024-02-26T00:26:23;97021.38;;;6.66;76.81
84143;BME280;74260;50.772;7.730;2024-02-26T00:26:53;97014.31;;;6.62;77.86
84143;BME280;74260;50.772;7.730;2024-02-26T00:27:24;97007.50;;;6.63;76.58
84143;BME280;74260;50.772;7.730;2024-02-26T00:27:55;97001.25;;;6.59;76.81
84143;BME280;74260;50.772;7.730;2024-02-26T00:28:25;97004.63;;;6.58;77.00
84143;BME280;74260;50.772;7.730;2024-02-26T00:28:57;97017.06;;;6.65;76.90
84143;BME280;74260;50.772;7.730;2024-02-26T00:29:29;97006.19;;;6.56;77.10
84143;BME280;74260;50.772;7.730;2024-02-26T00:29:59;97019.41;;;6.62;77.19
84143;BME280;74260;50.772;7.730;2024-02-26T00:30:30;97021.38;;;6.66;77.95
84143;BME280;74260;50.772;7.730;2024-02-26T00:31:00;97023.19;;;6.67;79.00
84143;BME280;74260;50.772;7.730;2024-02-26T00:31:32;97016.28;;;6.66;78.38
84143;BME280;74260;50.772;7.730;2024-02-26T00:32:02;97026.94;;;6.72;76.52
84143;BME280;74260;50.772;7.730;2024-02-26T00:32:32;97019.38;;;6.74;75.80
84143;BME280;74260;50.772;7.730;2024-02-26T00:33:04;97011.38;;;6.69;77.31
84143;BME280;74260;50.772;7.730;2024-02-26T00:33:35;97001.72;;;6.65;76.53
84143;BME280;74260;50.772;7.730;2024-02-26T00:34:05;97020.38;;;6.76;76.71
84143;BME280;74260;50.772;7.730;2024-02-26T00:34:35;97006.28;;;6.69;76.78
84143;BME280;74260;50.772;7.730;2024-02-26T00:35:06;97011.69;;;6.74;76.36
84143;BME280;74260;50.772;7.730;2024-02-26T00:35:37;97016.25;;;6.78;75.88
84143;BME280;74260;50.772;7.730;2024-02-26T00:36:07;97017.56;;;6.84;75.81
84143;BME280;74260;50.772;7.730;2024-02-26T00:36:39;97010.06;;;6.87;75.00
84143;BME280;74260;50.772;7.730;2024-02-26T00:37:09;96954.91;;;6.55;75.00
84143;BME280;74260;50.772;7.730;2024-02-26T00:37:40;97006.41;;;6.84;75.21
84143;BME280;74260;50.772;7.730;2024-02-26T00:38:10;97009.88;;;6.84;75.09
84143;BME280;74260;50.772;7.730;2024-02-26T00:38:40;97010.44;;;6.80;74.79
84143;BME280;74260;50.772;7.730;2024-02-26T00:39:14;97019.13;;;6.82;74.80
84143;BME280;74260;50.772;7.730;2024-02-26T00:39:44;96987.81;;;6.62;75.71
84143;BME280;74260;50.772;7.730;2024-02-26T00:40:16;97005.78;;;6.75;76.38
84143;BME280;74260;50.772;7.730;2024-02-26T00:40:47;97020.88;;;6.83;76.26
84143;BME280;74260;50.772;7.730;2024-02-26T00:41:24;97009.34;;;6.77;75.82
84143;BME280;74260;50.772;7.730;2024-02-26T00:41:55;97008.47;;;6.76;76.49
84143;BME280;74260;50.772;7.730;2024-02-26T00:42:25;97010.44;;;6.80;76.54
84143;BME280;74260;50.772;7.730;2024-02-26T00:42:56;96995.34;;;6.72;75.87
84143;BME280;74260;50.772;7.730;2024-02-26T00:43:26;96963.03;;;6.49;76.42
84143;BME280;74260;50.772;7.730;2024-02-26T00:43:58;97008.22;;;6.73;76.59
84143;BME280;74260;50.772;7.730;2024-02-26T00:44:28;96978.50;;;6.51;76.25
84143;BME280;74260;50.772;7.730;2024-02-26T00:44:58;97008.88;;;6.82;76.34
84143;BME280;74260;50.772;7.730;2024-02-26T00:45:29;97009.31;;;6.88;76.28
84143;BME280;74260;50.772;7.730;2024-02-26T00:45:59;97004.56;;;6.81;76.42
84143;BME280;74260;50.772;7.730;2024-02-26T00:46:30;97006.13;;;6.79;78.34
84143;BME280;74260;50.772;7.730;2024-02-26T00:47:00;96985.78;;;6.69;78.13
84143;BME280;74260;50.772;7.730;2024-02-26T00:47:31;97010.44;;;6.80;76.95
84143;BME280;74260;50.772;7.730;2024-02-26T00:48:02;96991.22;;;6.74;76.79
84143;BME280;74260;50.772;7.730;2024-02-26T00:48:35;96988.00;;;6.65;76.69
84143;BME280;74260;50.772;7.730;2024-02-26T00:49:05;96992.47;;;6.67;77.58
84143;BME280;74260;50.772;7.730;2024-02-26T00:49:37;96987.34;;;6.67;76.97
84143;BME280;74260;50.772;7.730;2024-02-26T00:50:08;96993.22;;;6.66;77.20
84143;BME280;74260;50.772;7.730;2024-02-26T00:50:39;96990.56;;;6.65;78.04
84143;BME280;74260;50.772;7.730;2024-02-26T00:51:10;96981.69;;;6.60;78.17
84143;BME280;74260;50.772;7.730;2024-02-26T00:51:40;96997.50;;;6.66;79.21
84143;BME280;74260;50.772;7.730;2024-02-26T00:52:10;96986.03;;;6.61;77.87
84143;BME280;74260;50.772;7.730;2024-02-26T00:52:41;96983.78;;;6.65;78.23
84143;BME280;74260;50.772;7.730;2024-02-26T00:53:15;96977.94;;;6.55;78.71
84143;BME280;74260;50.772;7.730;2024-02-26T00:53:46;97002.91;;;6.70;78.23
84143;BME280;74260;50.772;7.730;2024-02-26T00:54:18;96981.78;;;6.61;77.66
84143;BME280;74260;50.772;7.730;2024-02-26T00:54:48;96988.72;;;6.62;77.04
84143;BME280;74260;50.772;7.730;2024-02-26T00:55:18;96995.59;;;6.63;77.21
84143;BME280;74260;50.772;7.730;2024-02-26T00:55:49;96988.47;;;6.59;78.38
84143;BME280;74260;50.772;7.730;2024-02-26T00:56:19;96995.38;;;6.60;77.14
84143;BME280;74260;50.772;7.730;2024-02-26T00:56:49;96983.34;;;6.59;78.02
84143;BME280;74260;50.772;7.730;2024-02-26T00:57:20;96972.00;;;6.56;77.67
84143;BME280;74260;50.772;7.730;2024-02-26T00:57:51;96995.03;;;6.67;76.67
84143;BME280;74260;50.772;7.730;2024-02-26T00:58:21;96990.91;;;6.69;77.02
84143;BME280;74260;50.772;7.730;2024-02-26T00:58:52;96987.81;;;6.62;76.38
84143;BME280;74260;50.772;7.730;2024-02-26T00:59:22;96978.78;;;6.67;76.11
84143;BME280;74260;50.772;7.730;2024-02-26T00:59:54;96999.78;;;6.74;75.98
84143;BME280;74260;50.772;7.730;2024-02-26T01:00:26;96978.47;;;6.62;75.70
84143;BME280;74260;50.772;7.730;2024-02-26T01:00:56;96990.66;;;6.78;76.25
84143;BME280;74260;50.772;7.730;2024-02-26T01:01:27;96985.31;;;6.75;75.88
84143;BME280;74260;50.772;7.730;2024-02-26T01:01:57;96995.78;;;6.78;76.46
84143;BME280;74260;50.772;7.730;2024-02-26T01:02:30;97001.66;;;6.77;76.45
84143;BME280;74260;50.772;7.730;2024-02-26T01:03:02;96988.34;;;6.69;76.86
84143;BME280;74260;50.772;7.730;2024-02-26T01:03:33;96965.38;;;6.46;76.50
84143;BME280;74260;50.772;7.730;2024-02-26T01:04:04;96998.25;;;6.65;77.13
84143;BME280;74260;50.772;7.730;2024-02-26T01:04:34;96999.91;;;6.64;76.48
84143;BME280;74260;50.772;7.730;2024-02-26T01:05:05;97001.00;;;6.68;76.85
84143;BME280;74260;50.772;7.730;2024-02-26T01:05:37;96998.84;;;6.61;77.06
84143;BME280;74260;50.772;7.730;2024-02-26T01:06:08;97000.16;;;6.67;76.50
84143;BME280;74260;50.772;7.730;2024-02-26T01:06:39;96993.22;;;6.66;76.26
84143;BME280;74260;50.772;7.730;2024-02-26T01:07:10;96982.69;;;6.62;75.76
84143;BME280;74260;50.772;7.730;2024-02-26T01:07:40;96991.78;;;6.70;75.79
84143;BME280;74260;50.772;7.730;2024-02-26T01:08:11;97007.56;;;6.76;75.71
84143;BME280;74260;50.772;7.730;2024-02-26T01:08:41;96992.22;;;6.64;76.07
84143;BME280;74260;50.772;7.730;2024-02-26T01:09:11;96995.38;;;6.60;76.57
84143;BME280;74260;50.772;7.730;2024-02-26T01:09:42;97004.47;;;6.68;76.46
84143;BME280;74260;50.772;7.730;2024-02-26T01:10:14;97009.59;;;6.68;75.99
84143;BME280;74260;50.772;7.730;2024-02-26T01:10:44;96974.28;;;6.51;75.36
84143;BME280;74260;50.772;7.730;2024-02-26T01:11:15;97003.34;;;6.76;75.95
84143;BME280;74260;50.772;7.730;2024-02-26T01:11:46;96992.56;;;6.69;75.60
84143;BME280;74260;50.772;7.730;2024-02-26T01:12:17;96996.63;;;6.78;75.38
84143;BME280;74260;50.772;7.730;2024-02-26T01:12:47;97004.91;;;6.74;75.18
84143;BME280;74260;50.772;7.730;2024-02-26T01:13:18;96995.59;;;6.63;76.62
84143;BME280;74260;50.772;7.730;2024-02-26T01:13:49;96971.59;;;6.50;75.41
84143;BME280;74260;50.772;7.730;2024-02-26T01:14:27;97005.56;;;6.72;76.10
84143;BME280;74260;50.772;7.730;2024-02-26T01:14:58;96992.94;;;6.62;75.94
84143;BME280;74260;50.772;7.730;2024-02-26T01:15:29;96995.59;;;6.63;76.39
84143;BME280;74260;50.772;7.730;2024-02-26T01:16:00;96996.28;;;6.61;76.47
84143;BME280;74260;50.772;7.730;2024-02-26T01:16:31;96962.03;;;6.47;75.96
84143;BME280;74260;50.772;7.730;2024-02-26T01:17:02;97001.81;;;6.67;77.40
84143;BME280;74260;50.772;7.730;2024-02-26T01:17:33;96998.69;;;6.71;76.46
84143;BME280;74260;50.772;7.730;2024-02-26T01:18:03;96994.59;;;6.61;76.31
84143;BME280;74260;50.772;7.730;2024-02-26T01:18:35;96999.16;;;6.65;76.58
84143;BME280;74260;50.772;7.730;2024-02-26T01:19:05;97010.16;;;6.64;77.22
84143;BME280;74260;50.772;7.730;2024-02-26T01:19:37;97000.97;;;6.55;77.25
84143;BME280;74260;50.772;7.730;2024-02-26T01:20:07;96997.03;;;6.60;77.03
84143;BME280;74260;50.772;7.730;2024-02-26T01:20:39;97010.03;;;6.63;77.25
84143;BME280;74260;50.772;7.730;2024-02-26T01:21:12;97005.72;;;6.62;76.91
84143;BME280;74260;50.772;7.730;2024-02-26T01:21:42;96994.50;;;6.60;77.06
84143;BME280;74260;50.772;7.730;2024-02-26T01:22:13;96990.16;;;6.59;77.30
84143;BME280;74260;50.772;7.730;2024-02-26T01:22:45;96986.75;;;6.47;77.99
84143;BME280;74260;50.772;7.730;2024-02-26T01:23:17;97007.59;;;6.64;78.03
84143;BME280;74260;50.772;7.730;2024-02-26T01:23:47;97014.06;;;6.59;77.87
84143;BME280;74260;50.772;7.730;2024-02-26T01:24:18;97005.81;;;6.63;77.57
84143;BME280;74260;50.772;7.730;2024-02-26T01:24:50;97008.75;;;6.56;77.95
84143;BME280;74260;50.772;7.730;2024-02-26T01:25:20;97006.13;;;6.43;77.91
84143;BME280;74260;50.772;7.730;2024-02-26T01:25:50;96999.19;;;6.42;79.43
84143;BME280;74260;50.772;7.730;2024-02-26T01:26:24;97016.31;;;6.55;77.99
84143;BME280;74260;50.772;7.730;2024-02-26T01:26:56;97019.53;;;6.52;78.01
84143;BME280;74260;50.772;7.730;2024-02-26T01:27:26;97022.97;;;6.53;79.02
84143;BME280;74260;50.772;7.730;2024-02-26T01:27:57;96982.44;;;6.34;78.42
84143;BME280;74260;50.772;7.730;2024-02-26T01:28:27;96985.91;;;6.23;78.10
84143;BME280;74260;50.772;7.730;2024-02-26T01:28:58;97017.56;;;6.48;80.05
84143;BME280;74260;50.772;7.730;2024-02-26T01:29:30;97012.53;;;6.50;78.53
84143;BME280;74260;50.772;7.730;2024-02-26T01:30:04;96991.22;;;6.38;79.56
84143;BME280;74260;50.772;7.730;2024-02-26T01:30:35;97003.22;;;6.39;79.20
84143;BME280;74260;50.772;7.730;2024-02-26T01:31:05;97014.56;;;6.42;79.92
84143;BME280;74260;50.772;7.730;2024-02-26T01:31:37;97010.34;;;6.43;79.40
84143;BME280;74260;50.772;7.730;2024-02-26T01:32:08;97013.78;;;6.43;79.28
84143;BME280;74260;50.772;7.730;2024-02-26T01:32:39;97018.13;;;6.44;79.10
84143;BME280;74260;50.772;7.730;2024-02-26T01:33:09;97012.69;;;6.40;79.36
84143;BME280;74260;50.772;7.730;2024-02-26T01:33:39;97016.34;;;6.43;79.06
84143;BME280;74260;50.772;7.730;2024-02-26T01:34:10;96996.03;;;6.33;79.22
84143;BME280;74260;50.772;7.730;2024-02-26T01:34:40;97007.22;;;6.35;80.84
84143;BME280;74260;50.772;7.730;2024-02-26T01:35:11;96998.59;;;6.33;80.39
84143;BME280;74260;50.772;7.730;2024-02-26T01:35:42;96973.91;;;6.22;79.95
84143;BME280;74260;50.772;7.730;2024-02-26T01:36:12;96993.69;;;6.36;80.10
84143;BME280;74260;50.772;7.730;2024-02-26T01:36:43;97007.66;;;6.41;80.27
84143;BME280;74260;50.772;7.730;2024-02-26T01:37:13;96994.09;;;6.42;79.60
84143;BME280;74260;50.772;7.730;2024-02-26T01:37:44;96987.75;;;6.37;79.32
84143;BME280;74260;50.772;7.730;2024-02-26T01:38:14;96996.09;;;6.46;80.34
84143;BME280;74260;50.772;7.730;2024-02-26T01:38:45;96990.31;;;6.37;80.94
84143;BME280;74260;50.772;7.730;2024-02-26T01:39:15;96993.78;;;6.38;81.43
84143;BME280;74260;50.772;7.730;2024-02-26T01:39:47;96994.34;;;6.34;81.29
84143;BME280;74260;50.772;7.730;2024-02-26T01:40:18;96961.69;;;6.18;81.42
84143;BME280;74260;50.772;7.730;2024-02-26T01:40:50;96974.13;;;6.25;81.76
84143;BME280;74260;50.772;7.730;2024-02-26T01:41:20;96948.94;;;6.07;81.93
84143;BME280;74260;50.772;7.730;2024-02-26T01:41:51;96990.56;;;6.29;80.88
84143;BME280;74260;50.772;7.730;2024-02-26T01:42:21;96996.38;;;6.26;80.48
84143;BME280;74260;50.772;7.730;2024-02-26T01:42:52;96957.16;;;6.14;80.93
84143;BME280;74260;50.772;7.730;2024-02-26T01:43:23;96986.69;;;6.22;81.84
84143;BME280;74260;50.772;7.730;2024-02-26T01:43:53;96976.00;;;6.16;82.51
84143;BME280;74260;50.772;7.730;2024-02-26T01:44:23;96978.13;;;6.22;82.39
84143;BME280;74260;50.772;7.730;2024-02-26T01:44:54;96975.22;;;6.29;81.32
84143;BME280;74260;50.772;7.730;2024-02-26T01:45:26;96989.00;;;6.31;81.75
84143;BME280;74260;50.772;7.730;2024-02-26T01:45:58;96974.69;;;6.21;81.98
84143;BME280;74260;50.772;7.730;2024-02-26T01:46:29;96988.09;;;6.30;81.04
84143;BME280;74260;50.772;7.730;2024-02-26T01:47:03;96953.69;;;6.14;81.72
84143;BME280;74260;50.772;7.730;2024-02-26T01:47:34;96974.31;;;6.28;81.11
84143;BME280;74260;50.772;7.730;2024-02-26T01:48:05;96965.47;;;6.12;81.92
84143;BME280;74260;50.772;7.730;2024-02-26T01:48:36;96965.22;;;6.20;81.88
84143;BME280;74260;50.772;7.730;2024-02-26T01:49:11;96985.34;;;6.27;82.39
84143;BME280;74260;50.772;7.730;2024-02-26T01:49:43;96983.91;;;6.31;81.09
84143;BME280;74260;50.772;7.730;2024-02-26T01:50:13;96962.59;;;6.07;81.71
84143;BME280;74260;50.772;7.730;2024-02-26T01:50:44;96971.44;;;6.24;81.70
84143;BME280;74260;50.772;7.730;2024-02-26T01:51:15;96978.22;;;6.23;81.39
84143;BME280;74260;50.772;7.730;2024-02-26T01:51:46;96981.53;;;6.34;81.18
84143;BME280;74260;50.772;7.730;2024-02-26T01:52:16;96963.88;;;6.25;81.07
84143;BME280;74260;50.772;7.730;2024-02-26T01:52:50;96977.88;;;6.30;81.27
84143;BME280;74260;50.772;7.730;2024-02-26T01:53:22;96986.22;;;6.39;79.69
84143;BME280;74260;50.772;7.730;2024-02-26T01:53:53;96977.53;;;6.37;80.09
84143;BME280;74260;50.772;7.730;2024-02-26T01:54:24;96967.66;;;6.30;80.36
84143;BME280;74260;50.772;7.730;2024-02-26T01:54:54;96975.88;;;6.38;80.35
84143;BME280;74260;50.772;7.730;2024-02-26T01:55:26;96960.56;;;6.26;81.26
84143;BME280;74260;50.772;7.730;2024-02-26T01:55:56;96979.00;;;6.34;81.16
84143;BME280;74260;50.772;7.730;2024-02-26T01:56:28;96970.56;;;6.35;80.33
84143;BME280;74260;50.772;7.730;2024-02-26T01:57:01;96977.31;;;6.34;81.04
84143;BME280;74260;50.772;7.730;2024-02-26T01:57:32;96925.72;;;5.92;81.15
84143;BME280;74260;50.772;7.730;2024-02-26T01:58:03;96959.22;;;6.20;80.91
84143;BME280;74260;50.772;7.730;2024-02-26T01:58:36;96974.47;;;6.18;81.57
84143;BME280;74260;50.772;7.730;2024-02-26T01:59:07;96988.69;;;6.26;80.40
84143;BME280;74260;50.772;7.730;2024-02-26T01:59:39;96981.13;;;6.16;81.05
84143;BME280;74260;50.772;7.730;2024-02-26T02:00:10;96962.13;;;6.13;81.23
84143;BME280;74260;50.772;7.730;2024-02-26T02:00:42;96978.56;;;6.16;81.35
84143;BME280;74260;50.772;7.730;2024-02-26T02:01:15;96962.81;;;6.10;81.17
84143;BME280;74260;50.772;7.730;2024-02-26T02:01:48;96946.25;;;6.05;81.02
84143;BME280;74260;50.772;7.730;2024-02-26T02:02:20;96976.38;;;6.21;80.66
84143;BME280;74260;50.772;7.730;2024-02-26T02:02:51;96978.22;;;6.23;80.23
84143;BME280;74260;50.772;7.730;2024-02-26T02:03:24;96960.13;;;6.20;80.54
84143;BME280;74260;50.772;7.730;2024-02-26T02:03:56;96981.03;;;6.26;81.54
84143;BME280;74260;50.772;7.730;2024-02-26T02:04:30;96965.47;;;6.12;80.64
84143;BME280;74260;50.772;7.730;2024-02-26T02:05:01;96976.25;;;6.19;80.88
84143;BME280;74260;50.772;7.730;2024-02-26T02:05:32;96973.22;;;6.25;81.40
84143;BME280;74260;50.772;7.730;2024-02-26T02:06:04;96980.69;;;6.22;81.36
84143;BME280;74260;50.772;7.730;2024-02-26T02:06:35;96962.03;;;6.11;81.06
84143;BME280;74260;50.772;7.730;2024-02-26T02:07:06;96962.81;;;6.10;80.90
84143;BME280;74260;50.772;7.730;2024-02-26T02:07:37;96975.47;;;6.20;81.13
84143;BME280;74260;50.772;7.730;2024-02-26T02:08:09;96969.59;;;6.21;81.38
84143;BME280;74260;50.772;7.730;2024-02-26T02:08:40;96982.69;;;6.26;80.59
84143;BME280;74260;50.772;7.730;2024-02-26T02:09:11;96984.69;;;6.18;80.57
84143;BME280;74260;50.772;7.730;2024-02-26T02:09:43;96954.16;;;6.08;82.49
84143;BME280;74260;50.772;7.730;2024-02-26T02:10:15;96962.03;;;6.11;82.52
84143;BME280;74260;50.772;7.730;2024-02-26T02:10:45;96962.06;;;6.00;81.60
84143;BME280;74260;50.772;7.730;2024-02-26T02:11:17;96978.81;;;6.19;81.72
84143;BME280;74260;50.772;7.730;2024-02-26T02:11:48;96975.34;;;6.19;81.46
84143;BME280;74260;50.772;7.730;2024-02-26T02:12:19;96975.25;;;6.17;81.95
84143;BME280;74260;50.772;7.730;2024-02-26T02:12:49;96981.28;;;6.18;81.21
84143;BME280;74260;50.772;7.730;2024-02-26T02:13:21;96982.25;;;6.20;81.39
84143;BME280;74260;50.772;7.730;2024-02-26T02:13:51;96963.22;;;6.16;81.36
84143;BME280;74260;50.772;7.730;2024-02-26T02:14:22;96974.69;;;6.21;81.56
84143;BME280;74260;50.772;7.730;2024-02-26T02:14:53;96973.81;;;6.21;81.04
84143;BME280;74260;50.772;7.730;2024-02-26T02:15:23;96964.34;;;6.20;82.16
84143;BME280;74260;50.772;7.730;2024-02-26T02:15:54;96961.25;;;6.12;81.12
84143;BME280;74260;50.772;7.730;2024-02-26T02:16:24;96960.66;;;6.16;80.79
84143;BME280;74260;50.772;7.730;2024-02-26T02:16:55;96959.22;;;6.20;81.18
84143;BME280;74260;50.772;7.730;2024-02-26T02:17:26;96965.69;;;6.26;80.67
84143;BME280;74260;50.772;7.730;2024-02-26T02:17:57;96968.69;;;6.21;82.05
84143;BME280;74260;50.772;7.730;2024-02-26T02:18:27;96949.47;;;6.14;81.07
84143;BME280;74260;50.772;7.730;2024-02-26T02:18:58;96956.56;;;6.18;81.56
84143;BME280;74260;50.772;7.730;2024-02-26T02:19:29;96969.00;;;6.25;81.10
84143;BME280;74260;50.772;7.730;2024-02-26T02:19:59;96961.91;;;6.21;81.53
84143;BME280;74260;50.772;7.730;2024-02-26T02:20:33;96965.94;;;6.18;81.86
84143;BME280;74260;50.772;7.730;2024-02-26T02:21:04;96969.59;;;6.21;81.35
84143;BME280;74260;50.772;7.730;2024-02-26T02:21:34;96974.22;;;6.27;81.96
84143;BME280;74260;50.772;7.730;2024-02-26T02:22:04;96945.13;;;6.13;81.45
84143;BME280;74260;50.772;7.730;2024-02-26T02:22:36;96958.34;;;6.19;81.46
84143;BME280;74260;50.772;7.730;2024-02-26T02:23:06;96958.34;;;6.19;82.02
84143;BME280;74260;50.772;7.730;2024-02-26T02:23:37;96952.78;;;6.13;81.28
84143;BME280;74260;50.772;7.730;2024-02-26T02:24:08;96965.22;;;6.20;81.73
84143;BME280;74260;50.772;7.730;2024-02-26T02:24:38;96974.56;;;6.20;82.49
84143;BME280;74260;50.772;7.730;2024-02-26T02:25:09;96962.38;;;6.16;82.22
84143;BME280;74260;50.772;7.730;2024-02-26T02:25:40;96950.59;;;6.06;82.76
84143;BME280;74260;50.772;7.730;2024-02-26T02:26:15;96957.81;;;6.12;81.87
84143;BME280;74260;50.772;7.730;2024-02-26T02:26:47;96950.16;;;6.00;81.29
84143;BME280;74260;50.772;7.730;2024-02-26T02:27:17;96960.13;;;6.20;81.67
84143;BME280;74260;50.772;7.730;2024-02-26T02:27:48;96960.91;;;6.19;81.62
84143;BME280;74260;50.772;7.730;2024-02-26T02:28:22;96964.53;;;6.34;80.96
84143;BME280;74260;50.772;7.730;2024-02-26T02:28:53;96969.22;;;6.28;81.32
84143;BME280;74260;50.772;7.730;2024-02-26T02:29:24;96944.13;;;6.11;82.19
84143;BME280;74260;50.772;7.730;2024-02-26T02:29:54;96927.91;;;5.99;81.94
84143;BME280;74260;50.772;7.730;2024-02-26T02:30:27;96956.09;;;6.24;80.72
84143;BME280;74260;50.772;7.730;2024-02-26T02:30:58;96960.66;;;6.28;80.75
84143;BME280;74260;50.772;7.730;2024-02-26T02:31:28;96961.53;;;6.28;80.65
84143;BME280;74260;50.772;7.730;2024-02-26T02:32:01;96973.56;;;6.29;81.15
84143;BME280;74260;50.772;7.730;2024-02-26T02:32:32;96951.25;;;6.15;81.15
84143;BME280;74260;50.772;7.730;2024-02-26T02:33:03;96937.56;;;6.15;81.05
84143;BME280;74260;50.772;7.730;2024-02-26T02:33:34;96959.13;;;6.30;81.38
84143;BME280;74260;50.772;7.730;2024-02-26T02:34:05;96955.22;;;6.23;80.58
84143;BME280;74260;50.772;7.730;2024-02-26T02:34:37;96954.44;;;6.24;81.12
84143;BME280;74260;50.772;7.730;2024-02-26T02:35:09;96948.88;;;6.18;81.00
84143;BME280;74260;50.772;7.730;2024-02-26T02:35:39;96955.22;;;6.23;81.39
84143;BME280;74260;50.772;7.730;2024-02-26T02:36:09;96949.44;;;6.26;81.58
84143;BME280;74260;50.772;7.730;2024-02-26T02:36:53;96962.31;;;6.27;81.25
84143;BME280;74260;50.772;7.730;2024-02-26T02:37:24;96940.13;;;6.15;81.56
84143;BME280;74260;50.772;7.730;2024-02-26T02:37:56;96932.44;;;6.15;80.79
84143;BME280;74260;50.772;7.730;2024-02-26T02:38:27;96945.97;;;6.25;80.90
84143;BME280;74260;50.772;7.730;2024-02-26T02:39:00;96961.53;;;6.28;82.62
84143;BME280;74260;50.772;7.730;2024-02-26T02:39:30;96951.44;;;6.18;81.85
84143;BME280;74260;50.772;7.730;2024-02-26T02:40:00;96960.56;;;6.26;81.17
84143;BME280;74260;50.772;7.730;2024-02-26T02:40:31;96964.13;;;6.17;81.84
84143;BME280;74260;50.772;7.730;2024-02-26T02:41:01;96935.69;;;6.12;81.79
84143;BME280;74260;50.772;7.730;2024-02-26T02:41:31;96950.88;;;6.22;81.42
84143;BME280;74260;50.772;7.730;2024-02-26T02:42:02;96962.31;;;6.27;80.78
84143;BME280;74260;50.772;7.730;2024-02-26T02:42:32;96961.13;;;6.22;81.15
84143;BME280;74260;50.772;7.730;2024-02-26T02:43:02;96964.47;;;6.21;80.98
84143;BME280;74260;50.772;7.730;2024-02-26T02:43:34;96957.66;;;6.22;80.80
84143;BME280;74260;50.772;7.730;2024-02-26T02:44:05;96960.88;;;6.31;80.70
84143;BME280;74260;50.772;7.730;2024-02-26T02:44:35;96961.66;;;6.30;81.13
84143;BME280;74260;50.772;7.730;2024-02-26T02:45:05;96965.88;;;6.29;81.43
84143;BME280;74260;50.772;7.730;2024-02-26T02:45:36;96942.56;;;6.13;81.85
84143;BME280;74260;50.772;7.730;2024-02-26T02:46:08;96968.34;;;6.28;81.62
84143;BME280;74260;50.772;7.730;2024-02-26T02:46:39;96958.13;;;6.28;81.42
84143;BME280;74260;50.772;7.730;2024-02-26T02:47:09;96956.00;;;6.22;81.39